Terminal Aerodrome Forecast
Issued by NWS

Home | Current Version | Previous Version | Text Only | Print | Product List | Glossary On
Versions: 1 2 3 4 5 6 7 8 9 10 11 12 13 14 15 16 17 18 19
000
FTUS43 KJKL 040110 AAA
TAFSME
TAF AMD
KSME 040110Z 0401/0424 VRB05KT P6SM -SHRA VCTS SCT025CB OVC050
     FM040400 VRB03KT 5SM BR VCSH BKN012
     FM040800 00000KT 1/2SM FG BKN004
     FM041300 VRB03KT P6SM BKN008
     FM041600 VRB05KT P6SM VCTS SCT015CB BKN030=

USA.gov is the U.S. government's official web portal to all federal, state and local government web resources and services.